createdAt,value
2023-04-27T00:04:02.046Z,100133.94
2023-04-27T00:09:04.931Z,100139.61
2023-04-27T00:14:07.712Z,100143.19
2023-04-27T00:19:10.537Z,100149.00
2023-04-27T00:24:13.364Z,100152.06
2023-04-27T00:29:16.359Z,100153.08
2023-04-27T00:34:21.016Z,100157.70
2023-04-27T00:39:23.725Z,100159.92
2023-04-27T00:44:27.552Z,100162.45
2023-04-27T00:49:30.920Z,100164.48
2023-04-27T00:54:33.959Z,100164.45
2023-04-27T00:59:36.918Z,100164.40
2023-04-27T01:04:40.052Z,100167.46
2023-04-27T01:09:42.843Z,100167.11
2023-04-27T01:14:45.825Z,100169.68
2023-04-27T01:19:50.068Z,100173.96
2023-04-27T01:24:54.396Z,100177.88
2023-04-27T01:29:57.128Z,100171.48
2023-04-27T01:34:59.853Z,100175.40
2023-04-27T01:40:06.488Z,100178.33
2023-04-27T01:45:10.595Z,100180.05
2023-04-27T01:50:13.395Z,100184.04
2023-04-27T01:55:16.196Z,100181.11
2023-04-27T02:00:19.279Z,100187.27
2023-04-27T02:05:22.022Z,100186.21
2023-04-27T02:10:24.810Z,100191.02
2023-04-27T02:15:27.649Z,100190.02
2023-04-27T02:20:31.511Z,100183.35
2023-04-27T02:25:39.087Z,100185.25
2023-04-27T02:30:41.888Z,100187.64
2023-04-27T02:35:44.624Z,100187.77
2023-04-27T02:40:47.641Z,100191.17
2023-04-27T02:45:50.826Z,100185.69
2023-04-27T02:50:53.570Z,100191.16
2023-04-27T02:55:56.431Z,100193.39
2023-04-27T03:00:59.196Z,100194.91
2023-04-27T03:06:02.048Z,100204.12
2023-04-27T03:11:04.961Z,100204.77
2023-04-27T03:16:11.532Z,100207.17
2023-04-27T03:21:16.936Z,100206.98
2023-04-27T03:26:20.463Z,100215.77
2023-04-27T03:31:23.302Z,100215.27
2023-04-27T03:36:27.186Z,100215.96
2023-04-27T03:41:29.942Z,100217.52
2023-04-27T03:46:33.076Z,100218.61
2023-04-27T03:51:35.997Z,100222.48
2023-04-27T03:56:38.845Z,100226.39
2023-04-27T04:01:41.590Z,100229.90
2023-04-27T04:06:44.351Z,100234.44
2023-04-27T04:11:47.156Z,100230.55
2023-04-27T04:16:49.906Z,100235.65
2023-04-27T04:21:54.844Z,100241.46
2023-04-27T04:26:58.774Z,100242.45
2023-04-27T04:32:01.560Z,100240.02
2023-04-27T04:37:05.550Z,100242.33
2023-04-27T04:42:08.893Z,100246.73
2023-04-27T04:47:12.064Z,100242.36
2023-04-27T04:52:14.866Z,100243.83
2023-04-27T04:57:17.682Z,100250.95
2023-04-27T05:02:21.113Z,100247.64
2023-04-27T05:07:25.071Z,100249.73
2023-04-27T05:12:27.953Z,100249.16
2023-04-27T05:17:31.287Z,100254.67
2023-04-27T05:22:34.035Z,100257.39
2023-04-27T05:27:36.817Z,100257.95
2023-04-27T05:32:39.740Z,100266.63
2023-04-27T05:37:43.156Z,100271.75
2023-04-27T05:42:50.240Z,100278.39
2023-04-27T05:47:53.244Z,100281.60
2023-04-27T05:52:56.421Z,100282.61
2023-04-27T05:58:07.511Z,100286.31
2023-04-27T06:03:12.205Z,100287.11
2023-04-27T06:08:16.917Z,100288.55
2023-04-27T06:13:20.780Z,100295.75
2023-04-27T06:19:05.193Z,100308.82
2023-04-27T06:24:17.481Z,100307.38
2023-04-27T06:29:22.219Z,100283.81
2023-04-27T06:34:34.679Z,100277.40
2023-04-27T06:39:46.872Z,100267.09
2023-04-27T06:44:55.965Z,100260.55
2023-04-27T06:50:01.791Z,100252.42
2023-04-27T06:55:07.078Z,100247.15
2023-04-27T07:00:11.722Z,100244.15
2023-04-27T07:05:14.669Z,100243.89
2023-04-27T07:10:17.749Z,100252.68
2023-04-27T07:15:21.658Z,100256.31
2023-04-27T07:20:24.460Z,100264.10
2023-04-27T07:25:27.794Z,100269.55
2023-04-27T07:30:31.258Z,100261.27
2023-04-27T07:35:34.225Z,100253.01
2023-04-27T07:40:37.042Z,100263.52
2023-04-27T07:45:41.650Z,100267.63
2023-04-27T07:50:45.052Z,100279.40
2023-04-27T07:55:47.833Z,100280.28
2023-04-27T08:00:50.585Z,100284.39
2023-04-27T08:05:53.622Z,100287.03
2023-04-27T08:10:56.783Z,100285.25
2023-04-27T08:15:59.666Z,100285.34
2023-04-27T08:21:02.662Z,100282.52
2023-04-27T08:26:05.426Z,100288.83
2023-04-27T08:31:08.276Z,100295.30
2023-04-27T08:36:11.217Z,100299.36
2023-04-27T08:41:22.785Z,100308.71
2023-04-27T08:46:31.590Z,100310.06
2023-04-27T08:51:34.734Z,100308.23
2023-04-27T08:56:37.621Z,100309.37
2023-04-27T09:01:51.800Z,100299.61
2023-04-27T09:06:55.324Z,100301.89
2023-04-27T09:11:58.290Z,100304.08
2023-04-27T09:17:01.336Z,100306.48
2023-04-27T09:22:09.461Z,100312.44
2023-04-27T09:27:20.628Z,100316.05
2023-04-27T09:32:23.481Z,100311.27
2023-04-27T09:37:27.179Z,100305.14
2023-04-27T09:42:30.196Z,100295.42
2023-04-27T09:47:34.536Z,100301.83
2023-04-27T09:52:37.351Z,100307.33
2023-04-27T09:58:19.549Z,100310.92
2023-04-27T10:03:48.288Z,100312.32
2023-04-27T10:08:54.091Z,100312.88
2023-04-27T10:13:56.904Z,100316.26
2023-04-27T10:19:00.428Z,100314.73
2023-04-27T10:24:08.914Z,100319.39
2023-04-27T10:29:12.639Z,100322.25
2023-04-27T10:34:21.306Z,100325.09
2023-04-27T10:39:47.078Z,100320.02
2023-04-27T10:45:04.275Z,100318.02
2023-04-27T10:50:17.358Z,100317.45
2023-04-27T10:55:23.385Z,100319.70
2023-04-27T11:00:32.587Z,100326.13
2023-04-27T11:05:36.217Z,100338.97
2023-04-27T11:10:41.455Z,100337.41
2023-04-27T11:16:05.264Z,100330.89
2023-04-27T11:21:11.620Z,100330.02
2023-04-27T11:26:17.734Z,100325.77
2023-04-27T11:31:21.113Z,100316.81
2023-04-27T11:36:24.505Z,100315.34
2023-04-27T11:41:37.492Z,100314.59
2023-04-27T11:46:45.113Z,100318.04
2023-04-27T11:51:48.877Z,100319.79
2023-04-27T11:56:51.651Z,100321.73
2023-04-27T12:01:54.798Z,100328.87
2023-04-27T12:06:58.111Z,100333.09
2023-04-27T12:12:01.071Z,100330.09
2023-04-27T12:17:03.999Z,100330.92
2023-04-27T12:22:07.208Z,100323.35
2023-04-27T12:27:10.014Z,100321.73
2023-04-27T12:32:12.853Z,100318.55
2023-04-27T12:37:26.672Z,100324.86
2023-04-27T12:42:30.256Z,100327.42
2023-04-27T12:47:53.958Z,100327.21
2023-04-27T12:52:58.175Z,100325.65
2023-04-27T12:58:01.506Z,100329.30
2023-04-27T13:03:05.243Z,100331.30
2023-04-27T13:08:08.098Z,100330.91
2023-04-27T13:13:11.037Z,100351.16
2023-04-27T13:18:13.945Z,100362.20
2023-04-27T13:23:18.058Z,100376.44
2023-04-27T13:28:20.955Z,100379.63
2023-04-27T13:33:25.377Z,100397.96
2023-04-27T13:38:29.177Z,100406.85
2023-04-27T13:43:33.028Z,100396.66
2023-04-27T13:48:37.865Z,100393.27
2023-04-27T13:53:40.760Z,100393.05
2023-04-27T13:58:43.828Z,100391.46
2023-04-27T14:03:47.423Z,100384.09
2023-04-27T14:08:52.325Z,100393.66
2023-04-27T14:13:56.193Z,100399.14
2023-04-27T14:18:59.477Z,100405.61
2023-04-27T14:24:02.323Z,100416.70
2023-04-27T14:29:07.693Z,100433.33
2023-04-27T14:34:11.012Z,100449.14
2023-04-27T14:39:16.356Z,100460.09
2023-04-27T14:44:22.194Z,100468.70
2023-04-27T14:49:25.412Z,100473.17
2023-04-27T14:54:29.765Z,100470.28
2023-04-27T14:59:34.854Z,100469.23
2023-04-27T15:04:39.310Z,100466.70
2023-04-27T15:09:42.509Z,100468.84
2023-04-27T15:14:45.452Z,100464.75
2023-04-27T15:19:48.264Z,100463.70
2023-04-27T15:24:51.286Z,100465.30
2023-04-27T15:29:55.086Z,100460.98
2023-04-27T15:34:58.424Z,100458.88
2023-04-27T15:40:03.892Z,100454.67
2023-04-27T15:45:09.842Z,100458.81
2023-04-27T15:50:13.485Z,100457.75
2023-04-27T15:55:18.988Z,100453.98
2023-04-27T16:00:22.893Z,100453.26
2023-04-27T16:05:31.337Z,100457.86
2023-04-27T16:10:34.280Z,100458.98
2023-04-27T16:15:38.017Z,100464.15
2023-04-27T16:20:42.229Z,100469.50
2023-04-27T16:25:46.908Z,100464.30
2023-04-27T16:30:49.667Z,100465.94
2023-04-27T16:35:52.567Z,100460.53
2023-04-27T16:40:56.358Z,100456.83
2023-04-27T16:46:01.284Z,100449.90
2023-04-27T16:51:04.557Z,100454.05
2023-04-27T16:56:07.530Z,100458.25
2023-04-27T17:01:10.576Z,100462.81
2023-04-27T17:06:14.527Z,100469.77
2023-04-27T17:11:17.434Z,100471.25
2023-04-27T17:16:21.940Z,100475.13
2023-04-27T17:21:26.913Z,100471.85
2023-04-27T17:26:35.182Z,100473.08
2023-04-27T17:31:38.012Z,100473.91
2023-04-27T17:36:40.840Z,100476.80
2023-04-27T17:41:43.641Z,100477.48
2023-04-27T17:46:47.787Z,100481.23
2023-04-27T17:51:50.980Z,100480.98
2023-04-27T17:56:54.051Z,100487.34
2023-04-27T18:01:56.865Z,100489.67
2023-04-27T18:06:59.681Z,100494.78
2023-04-27T18:12:02.462Z,100503.27
2023-04-27T18:17:05.973Z,100507.29
2023-04-27T18:22:10.189Z,100512.33
2023-04-27T18:27:16.577Z,100516.30
2023-04-27T18:32:19.685Z,100515.27
2023-04-27T18:37:22.551Z,100523.40
2023-04-27T18:42:26.045Z,100525.10
2023-04-27T18:47:29.101Z,100525.26
2023-04-27T18:52:32.086Z,100531.97
2023-04-27T18:57:34.802Z,100533.85
2023-04-27T19:02:38.197Z,100536.09
2023-04-27T19:07:41.701Z,100540.57
2023-04-27T19:12:44.434Z,100540.91
2023-04-27T19:17:48.770Z,100545.39
2023-04-27T19:22:55.331Z,100549.69
2023-04-27T19:27:58.808Z,100549.98
2023-04-27T19:33:02.266Z,100553.05
2023-04-27T19:38:06.055Z,100555.25
2023-04-27T19:43:10.488Z,100555.73
2023-04-27T19:48:13.331Z,100561.02
2023-04-27T19:53:16.418Z,100564.92
2023-04-27T19:58:19.179Z,100562.45
2023-04-27T20:03:22.268Z,100567.21
2023-04-27T20:08:25.395Z,100568.86
2023-04-27T20:13:32.736Z,100573.79
2023-04-27T20:18:38.126Z,100579.04
2023-04-27T20:23:41.819Z,100581.73
2023-04-27T20:28:44.612Z,100585.46
2023-04-27T20:33:47.410Z,100589.85
2023-04-27T20:38:50.488Z,100595.41
2023-04-27T20:43:53.746Z,100598.75
2023-04-27T20:48:56.541Z,100601.75
2023-04-27T20:53:59.946Z,100603.73
2023-04-27T20:59:02.682Z,100609.34
2023-04-27T21:04:05.505Z,100607.01
2023-04-27T21:09:08.523Z,100606.77
2023-04-27T21:14:11.501Z,100610.14
2023-04-27T21:19:16.393Z,100609.23
2023-04-27T21:24:20.312Z,100609.20
2023-04-27T21:29:23.719Z,100612.79
2023-04-27T21:34:26.728Z,100609.83
2023-04-27T21:39:29.881Z,100610.32
2023-04-27T21:44:32.624Z,100611.84
2023-04-27T21:49:35.401Z,100615.59
2023-04-27T21:54:38.161Z,100624.84
2023-04-27T21:59:41.009Z,100621.52
2023-04-27T22:04:44.751Z,100629.07
2023-04-27T22:09:47.565Z,100629.77
2023-04-27T22:14:50.622Z,100632.89
2023-04-27T22:19:53.518Z,100634.99
2023-04-27T22:24:56.261Z,100637.59
2023-04-27T22:29:59.039Z,100637.39
2023-04-27T22:35:02.450Z,100638.70
2023-04-27T22:40:06.062Z,100641.34
2023-04-27T22:45:09.492Z,100640.73
2023-04-27T22:50:12.802Z,100642.01
2023-04-27T22:55:16.125Z,100641.73
2023-04-27T23:00:19.762Z,100643.70
2023-04-27T23:05:22.930Z,100644.66
2023-04-27T23:10:26.894Z,100642.73
2023-04-27T23:15:29.647Z,100640.83
2023-04-27T23:20:32.941Z,100645.15
2023-04-27T23:25:35.768Z,100640.31
2023-04-27T23:30:38.620Z,100638.41
2023-04-27T23:35:41.897Z,100639.02
2023-04-27T23:40:44.692Z,100641.67
2023-04-27T23:45:53.737Z,100642.42
2023-04-27T23:51:01.259Z,100645.23
2023-04-27T23:56:04.165Z,100649.06
